Time;durP1;ratioP1;P1;durP2;ratioP2;P2;SDS_P1;SDS_P2;PMS_P1;PMS_P2;Temp;Humidity;BMP_temperature;BMP_pressure;BME280_temperature;BME280_humidity;BME280_pressure;Samples;Min_cycle;Max_cycle;Signal;HPM_P1;HPM_P2
2022/01/12 00:01:22;;;;;;;25.40;11.40;;;;;;;-145.69;100.00;75029.56;5072880;28;20442;-77
2022/01/12 00:03:49;;;;;;;20.13;8.70;;;;;;;-145.69;100.00;75043.50;5074257;28;20202;-77
2022/01/12 00:06:15;;;;;;;16.77;8.20;;;;;;;-145.69;100.00;75033.56;5074140;28;20198;-77
2022/01/12 00:08:43;;;;;;;16.80;7.67;;;;;;;-145.69;100.00;75049.50;5073771;28;20317;-76
2022/01/12 00:11:10;;;;;;;20.07;8.20;;;;;;;-145.69;100.00;75061.44;5073901;28;20205;-77
2022/01/12 00:13:37;;;;;;;13.90;7.03;;;;;;;-145.69;100.00;75077.38;5073557;28;20293;-77
2022/01/12 00:16:04;;;;;;;14.73;7.07;;;;;;;-145.69;100.00;75089.31;5073601;28;20558;-77
2022/01/12 00:18:31;;;;;;;15.90;7.70;;;;;;;-145.69;100.00;75085.34;5073732;28;20194;-76
2022/01/12 00:20:58;;;;;;;21.23;8.30;;;;;;;-145.69;100.00;75025.59;5073711;28;20255;-76
2022/01/12 00:23:25;;;;;;;18.73;7.50;;;;;;;-145.69;100.00;75047.50;5073404;28;20577;-77
2022/01/12 00:26:03;;;;;;;18.67;7.37;;;;;;;-145.69;100.00;75031.56;5073630;28;20229;-76
2022/01/12 00:34:00;;;;;;;16.57;7.83;;;;;;;-145.69;100.00;75057.44;5073335;28;20198;-77
2022/01/12 00:36:27;;;;;;;20.70;9.17;;;;;;;-145.69;100.00;75057.44;5073339;28;20231;-76
2022/01/12 00:38:54;;;;;;;26.33;10.20;;;;;;;-145.69;100.00;74993.72;5067846;28;20206;-76
2022/01/12 00:41:22;;;;;;;23.90;10.17;;;;;;;-145.69;100.00;74985.75;5053423;28;20208;-76
2022/01/12 00:43:56;;;;;;;24.53;9.33;;;;;;;-145.69;100.00;75009.66;5053122;28;20732;-76
2022/01/12 00:46:24;;;;;;;24.63;9.90;;;;;;;-145.69;100.00;75013.63;5053361;28;20210;-77
2022/01/12 00:48:55;;;;;;;22.37;9.07;;;;;;;-145.69;100.00;75023.59;5053046;28;20602;-77
2022/01/12 00:51:22;;;;;;;25.63;10.37;;;;;;;-145.69;100.00;75023.59;5053116;28;20294;-76
2022/01/12 00:53:48;;;;;;;21.07;9.27;;;;;;;-145.69;100.00;75017.63;5063020;28;20199;-77
2022/01/12 00:56:18;;;;;;;25.07;10.80;;;;;;;-145.69;100.00;75005.66;5072903;28;20206;-77
2022/01/12 00:58:46;;;;;;;25.70;10.23;;;;;;;-145.69;100.00;74989.75;5073046;28;20206;-77
2022/01/12 01:01:12;;;;;;;23.70;10.03;;;;;;;-145.69;100.00;74943.94;5073087;28;20199;-77
2022/01/12 01:03:39;;;;;;;26.57;10.47;;;;;;;-145.69;100.00;74920.03;5073001;28;20195;-77
2022/01/12 01:06:10;;;;;;;28.93;11.33;;;;;;;-145.69;100.00;74890.16;5072780;28;20203;-77
2022/01/12 01:08:39;;;;;;;27.40;11.13;;;;;;;-145.69;100.00;74862.28;5072768;28;20230;-77
2022/01/12 01:11:06;;;;;;;28.43;11.07;;;;;;;-145.69;100.00;74834.38;5073053;28;20268;-77
2022/01/12 01:13:42;;;;;;;26.70;10.50;;;;;;;-145.69;100.00;74838.38;5073151;28;20221;-77
2022/01/12 01:16:17;;;;;;;25.40;10.23;;;;;;;-145.69;100.00;74834.38;5073105;28;20229;-77
2022/01/12 01:27:02;;;;;;;26.27;10.30;;;;;;;-145.69;100.00;74728.84;5056940;28;20279;-77
2022/01/12 01:29:29;;;;;;;23.17;9.90;;;;;;;-145.69;100.00;74738.78;5056865;28;20593;-78
2022/01/12 01:32:03;;;;;;;26.37;11.13;;;;;;;-145.69;100.00;74728.84;5057042;28;20199;-77
2022/01/12 01:34:31;;;;;;;19.90;8.57;;;;;;;-145.69;100.00;74740.78;5056609;28;20662;-77
2022/01/12 01:37:01;;;;;;;24.87;9.97;;;;;;;-145.69;100.00;74736.81;5056734;28;20206;-77
2022/01/12 01:39:29;;;;;;;20.93;9.43;;;;;;;-145.69;100.00;74722.88;5056534;28;20666;-77
2022/01/12 01:42:07;;;;;;;21.37;9.03;;;;;;;-145.69;100.00;74691.00;5056623;28;20276;-77
2022/01/12 01:55:37;;;;;;;17.77;8.20;;;;;;;-145.69;100.00;74619.31;5076310;28;20256;-76
2022/01/12 01:58:04;;;;;;;20.50;8.87;;;;;;;-145.69;100.00;74575.50;5076121;28;20206;-77
2022/01/12 02:00:32;;;;;;;19.47;8.77;;;;;;;-145.69;100.00;74563.53;5076560;28;20209;-77
2022/01/12 02:03:01;;;;;;;15.33;7.73;;;;;;;-145.69;100.00;74571.50;5075697;28;20230;-77
2022/01/12 02:05:28;;;;;;;23.63;8.90;;;;;;;-145.69;100.00;74569.53;5076332;28;20198;-76
2022/01/12 02:07:54;;;;;;;17.13;8.17;;;;;;;-145.69;100.00;74567.53;5076266;28;20207;-76
2022/01/12 02:10:21;;;;;;;21.87;9.43;;;;;;;-145.69;100.00;74571.50;5075200;28;20210;-77
2022/01/12 02:12:48;;;;;;;17.63;7.73;;;;;;;-145.69;100.00;74565.53;5075904;28;20207;-77
2022/01/12 02:15:18;;;;;;;18.17;9.20;;;;;;;-145.69;100.00;74551.59;5075905;28;20194;-77
2022/01/12 02:18:01;;;;;;;19.63;8.73;;;;;;;-145.69;100.00;74545.63;5076109;28;20211;-77
2022/01/12 02:37:08;;;;;;;13.70;7.20;;;;;;;-145.69;100.00;74535.66;5075627;28;20282;-78
2022/01/12 02:39:52;;;;;;;17.00;7.63;;;;;;;-145.69;100.00;74539.66;5075528;28;20629;-77
2022/01/12 02:42:19;;;;;;;19.33;8.13;;;;;;;-145.69;100.00;74547.63;5073198;28;20234;-76
2022/01/12 02:55:47;;;;;;;17.43;8.20;;;;;;;-145.69;100.00;74531.69;5075302;28;20229;-77
2022/01/12 02:58:13;;;;;;;16.70;7.37;;;;;;;-145.69;100.00;74535.66;5075062;28;20195;-77
2022/01/12 03:01:03;;;;;;;16.53;8.00;;;;;;;-145.69;100.00;74545.63;5074627;28;20209;-77
2022/01/12 03:03:33;;;;;;;14.97;7.43;;;;;;;-145.69;100.00;74539.66;5074759;28;20197;-77
2022/01/12 03:06:02;;;;;;;16.70;7.83;;;;;;;-145.69;100.00;74545.63;5075098;28;20194;-76
2022/01/12 03:08:36;;;;;;;16.33;7.70;;;;;;;-145.69;100.00;74537.66;5074973;28;20253;-77
2022/01/12 03:11:05;;;;;;;16.00;7.00;;;;;;;-145.69;100.00;74539.66;5074822;28;20657;-77
2022/01/12 03:13:31;;;;;;;15.20;7.40;;;;;;;-145.69;100.00;74531.69;5075099;28;20221;-77
2022/01/12 03:15:58;;;;;;;18.73;8.50;;;;;;;-145.69;100.00;74533.69;5074979;28;20208;-77
2022/01/12 03:18:27;;;;;;;16.60;7.67;;;;;;;-145.69;100.00;74531.69;5075215;28;20206;-77
2022/01/12 03:20:56;;;;;;;15.03;7.37;;;;;;;-145.69;100.00;74535.66;5074818;28;20222;-77
2022/01/12 03:23:23;;;;;;;14.93;7.50;;;;;;;-145.69;100.00;74555.59;5074310;28;20195;-77
2022/01/12 03:25:50;;;;;;;17.70;7.43;;;;;;;-145.69;100.00;74555.59;5074748;28;20194;-76
2022/01/12 03:28:18;;;;;;;17.97;8.03;;;;;;;-145.69;100.00;74559.56;5074737;28;20360;-78
2022/01/12 03:30:54;;;;;;;15.50;7.23;;;;;;;-145.69;100.00;74563.53;5074674;28;20226;-78
2022/01/12 03:36:24;;;;;;;15.03;7.67;;;;;;;-145.69;100.00;74579.47;5072070;28;20198;-77
2022/01/12 03:38:53;;;;;;;17.13;7.83;;;;;;;-145.69;100.00;74571.50;5074551;28;20203;-77
2022/01/12 03:41:25;;;;;;;19.97;8.63;;;;;;;-145.69;100.00;74587.44;5074467;28;20230;-78
2022/01/12 03:43:58;;;;;;;17.90;7.93;;;;;;;-145.69;100.00;74591.44;5074395;28;20202;-77
2022/01/12 03:46:33;;;;;;;20.83;9.00;;;;;;;-145.69;100.00;74593.41;5073893;28;20203;-78
2022/01/12 03:48:59;;;;;;;18.50;8.30;;;;;;;-145.69;100.00;74607.34;5073930;28;20764;-77
2022/01/12 03:51:26;;;;;;;19.53;8.30;;;;;;;-145.69;100.00;74621.31;5074312;28;20256;-77
2022/01/12 03:53:54;;;;;;;20.13;9.00;;;;;;;-145.69;100.00;74633.25;5073805;28;20527;-77
2022/01/12 03:56:23;;;;;;;18.37;7.90;;;;;;;-145.69;100.00;74631.25;5073927;28;20565;-77
2022/01/12 03:58:51;;;;;;;17.83;8.40;;;;;;;-145.69;100.00;74615.31;5073845;28;20566;-77
2022/01/12 04:01:19;;;;;;;16.23;7.83;;;;;;;-145.69;100.00;74637.22;5073770;28;20214;-77
2022/01/12 04:03:58;;;;;;;18.10;9.00;;;;;;;-145.69;100.00;74659.13;5073985;28;20199;-77
2022/01/12 04:09:12;;;;;;;16.30;8.07;;;;;;;-145.69;100.00;74675.06;5073744;28;20226;-77
2022/01/12 04:11:43;;;;;;;17.63;8.60;;;;;;;-145.69;100.00;74667.09;5073857;28;20222;-77
2022/01/12 04:14:10;;;;;;;20.47;9.73;;;;;;;-145.69;100.00;74641.22;5073744;28;20222;-77
2022/01/12 04:16:39;;;;;;;23.87;9.90;;;;;;;-145.69;100.00;74635.25;5073957;28;20306;-77
2022/01/12 04:19:05;;;;;;;21.60;9.47;;;;;;;-145.69;100.00;74631.25;5073448;28;20195;-77
2022/01/12 04:21:40;;;;;;;16.90;8.37;;;;;;;-145.69;100.00;74625.28;5073630;28;20226;-77
2022/01/12 04:24:09;;;;;;;19.60;8.47;;;;;;;-145.69;100.00;74625.28;5073239;28;20241;-77
2022/01/12 04:26:50;;;;;;;19.07;8.60;;;;;;;-145.69;100.00;74627.28;5073787;28;20201;-77
2022/01/12 04:29:17;;;;;;;19.77;8.83;;;;;;;-145.69;100.00;74647.19;5073437;28;20287;-77
2022/01/12 04:31:45;;;;;;;18.70;8.83;;;;;;;-145.69;100.00;74631.25;5073388;28;20719;-77
2022/01/12 04:34:14;;;;;;;19.30;9.80;;;;;;;-145.69;100.00;74635.25;5073087;28;20265;-78
2022/01/12 04:36:40;;;;;;;16.97;8.77;;;;;;;-145.69;100.00;74637.22;5073218;28;20210;-77
2022/01/12 04:39:06;;;;;;;18.07;8.50;;;;;;;-145.69;100.00;74635.25;5073415;28;20207;-78
2022/01/12 04:41:34;;;;;;;18.77;8.53;;;;;;;-145.69;100.00;74631.25;5073162;28;20256;-77
2022/01/12 04:44:02;;;;;;;20.53;8.77;;;;;;;-145.69;100.00;74643.19;5065650;28;20195;-77
2022/01/12 04:46:37;;;;;;;19.27;8.77;;;;;;;-145.69;100.00;74639.22;5052965;28;20681;-77
2022/01/12 04:49:22;;;;;;;17.97;8.63;;;;;;;-145.69;100.00;74635.25;5053049;28;20581;-77
2022/01/12 04:51:51;;;;;;;21.03;9.00;;;;;;;-145.69;100.00;74629.25;5053372;28;20629;-77
2022/01/12 04:54:17;;;;;;;19.20;9.40;;;;;;;-145.69;100.00;74623.28;5072593;28;20206;-77
2022/01/12 04:56:44;;;;;;;21.00;9.63;;;;;;;-145.69;100.00;74617.31;5073037;28;20237;-77
2022/01/12 04:59:12;;;;;;;21.97;9.63;;;;;;;-145.69;100.00;74619.31;5071974;28;20226;-77
2022/01/12 05:01:52;;;;;;;21.50;9.23;;;;;;;-145.69;100.00;74625.28;5073009;28;20549;-77
2022/01/12 05:12:42;;;;;;;22.70;9.53;;;;;;;-145.69;100.00;74643.19;5072799;28;20229;-77
2022/01/12 05:12:52;;;;;;;27.92;13.25;;;;;;;-145.69;100.00;74647.19;5071798;28;20460;-78
2022/01/12 05:15:26;;;;;;;21.20;9.23;;;;;;;-145.69;100.00;74651.16;5072983;28;20206;-77
2022/01/12 05:17:54;;;;;;;22.60;10.53;;;;;;;-145.69;100.00;74663.13;5072897;28;20194;-77
2022/01/12 05:20:25;;;;;;;18.67;9.17;;;;;;;-145.69;100.00;74667.09;5072688;28;20218;-77
2022/01/12 05:22:52;;;;;;;21.93;9.77;;;;;;;-145.69;100.00;74667.09;5072293;28;20588;-77
2022/01/12 05:25:22;;;;;;;22.25;10.88;;;;;;;-145.69;100.00;74679.06;5072543;28;20438;-77
2022/01/12 05:27:50;;;;;;;21.07;10.30;;;;;;;-145.69;100.00;74679.06;5072817;28;20655;-77
2022/01/12 05:30:17;;;;;;;19.40;9.70;;;;;;;-145.69;100.00;74691.00;5072697;28;20231;-76
2022/01/12 05:32:46;;;;;;;19.67;9.50;;;;;;;-145.69;100.00;74691.00;5072484;28;20202;-77
2022/01/12 05:35:14;;;;;;;21.17;9.57;;;;;;;-145.69;100.00;74689.00;5072881;28;20209;-77
2022/01/12 05:37:45;;;;;;;21.60;10.40;;;;;;;-145.69;100.00;74691.00;5072701;28;20210;-77
2022/01/12 05:40:13;;;;;;;25.93;9.83;;;;;;;-145.69;100.00;74685.03;5072833;28;20665;-77
2022/01/12 05:42:40;;;;;;;22.83;9.93;;;;;;;-145.69;100.00;74689.00;5072667;28;20256;-77
2022/01/12 05:45:09;;;;;;;19.83;9.33;;;;;;;-145.69;100.00;74671.09;5072748;28;20202;-78
2022/01/12 05:49:34;;;;;;;19.63;9.43;;;;;;;-145.69;100.00;74671.09;5073167;28;20198;-77
2022/01/12 05:50:28;;;;;;;15.47;8.20;;;;;;;-145.69;100.00;74679.06;5072764;28;20253;-77
2022/01/12 05:52:56;;;;;;;20.63;9.70;;;;;;;-145.69;100.00;74673.06;5072284;28;20558;-77
2022/01/12 05:55:23;;;;;;;20.27;9.87;;;;;;;-145.69;100.00;74675.06;5072256;28;20564;-78
2022/01/12 05:57:49;;;;;;;21.33;9.90;;;;;;;-145.69;100.00;74683.03;5072484;28;20195;-77
2022/01/12 06:00:21;;;;;;;21.07;9.63;;;;;;;-145.69;100.00;74689.00;5072832;28;20253;-77
2022/01/12 06:02:47;;;;;;;19.57;9.70;;;;;;;-145.69;100.00;74689.00;5072682;28;20213;-77
2022/01/12 06:05:14;;;;;;;20.80;9.97;;;;;;;-145.69;100.00;74693.00;5072458;28;20673;-77
2022/01/12 06:07:41;;;;;;;19.63;9.77;;;;;;;-145.69;100.00;74700.97;5072883;28;20297;-77
2022/01/12 06:10:12;;;;;;;18.80;9.63;;;;;;;-145.69;100.00;74710.91;5073060;28;20233;-77
2022/01/12 06:12:41;;;;;;;18.90;9.63;;;;;;;-145.69;100.00;74712.91;5076313;28;20195;-77
2022/01/12 06:15:09;;;;;;;21.07;9.00;;;;;;;-145.69;100.00;74706.94;5076420;28;20286;-77
2022/01/12 06:17:38;;;;;;;22.37;9.63;;;;;;;-145.69;100.00;74720.88;5076225;28;20203;-77
2022/01/12 06:20:08;;;;;;;18.30;9.20;;;;;;;-145.69;100.00;74730.84;5076077;28;20203;-78
2022/01/12 06:22:35;;;;;;;20.77;9.63;;;;;;;-145.69;100.00;74740.78;5075525;28;20195;-77
2022/01/12 06:25:02;;;;;;;21.60;10.60;;;;;;;-145.69;100.00;74736.81;5075815;28;20206;-76
2022/01/12 06:27:32;;;;;;;18.20;9.43;;;;;;;-145.69;100.00;74750.75;5075634;28;20673;-76
2022/01/12 06:31:10;;;;;;;20.37;10.03;;;;;;;-145.69;100.00;74754.72;5076022;28;20222;-77
2022/01/12 06:32:54;;;;;;;18.40;9.53;;;;;;;-145.69;100.00;74774.66;5075610;28;20323;-77
2022/01/12 06:35:23;;;;;;;19.77;8.90;;;;;;;-145.69;100.00;74774.66;5075754;28;20256;-78
2022/01/12 06:37:50;;;;;;;24.57;10.00;;;;;;;-145.69;100.00;74776.63;5073923;28;20195;-77
2022/01/12 06:40:19;;;;;;;18.03;9.73;;;;;;;-145.69;100.00;74780.63;5057353;28;20199;-76
2022/01/12 06:42:47;;;;;;;24.40;10.37;;;;;;;-145.69;100.00;74770.66;5055313;28;20694;-77
2022/01/12 06:45:21;;;;;;;21.97;9.33;;;;;;;-145.69;100.00;74794.56;5055538;28;20203;-77
2022/01/12 06:47:48;;;;;;;21.57;9.40;;;;;;;-145.69;100.00;74790.56;5056097;28;20389;-77
2022/01/12 06:50:14;;;;;;;21.43;9.93;;;;;;;-145.69;100.00;74794.56;5055308;28;20699;-77
2022/01/12 06:52:47;;;;;;;19.63;8.83;;;;;;;-145.69;100.00;74802.53;5065705;28;20203;-77
2022/01/12 06:55:14;;;;;;;21.83;9.23;;;;;;;-145.69;100.00;74790.56;5075425;28;20202;-76
2022/01/12 06:57:40;;;;;;;19.87;10.40;;;;;;;-145.69;100.00;74802.53;5075390;28;20203;-77
2022/01/12 07:00:09;;;;;;;21.60;9.67;;;;;;;-145.69;100.00;74816.47;5075046;28;20209;-77
2022/01/12 07:02:39;;;;;;;20.40;9.60;;;;;;;-145.69;100.00;74830.41;5075232;28;20646;-77
2022/01/12 07:05:10;;;;;;;20.33;9.33;;;;;;;-145.69;100.00;74848.34;5075467;28;20252;-77
2022/01/12 07:07:36;;;;;;;20.60;10.27;;;;;;;-145.69;100.00;74832.41;5074943;28;20210;-76
2022/01/12 07:10:09;;;;;;;22.53;9.93;;;;;;;-145.69;100.00;74838.38;5075001;28;20230;-77
2022/01/12 07:12:35;;;;;;;21.00;9.43;;;;;;;-145.69;100.00;74846.34;5074979;28;20195;-77
2022/01/12 07:15:05;;;;;;;21.90;10.57;;;;;;;-145.69;100.00;74862.28;5075018;28;20201;-77
2022/01/12 07:17:32;;;;;;;18.93;9.30;;;;;;;-145.69;100.00;74884.19;5075009;28;20198;-78
2022/01/12 07:19:59;;;;;;;21.53;9.60;;;;;;;-145.69;100.00;74896.13;5074922;28;20206;-77
2022/01/12 07:22:31;;;;;;;21.03;9.40;;;;;;;-145.69;100.00;74890.16;5073624;28;20673;-77
2022/01/12 07:25:04;;;;;;;22.43;9.23;;;;;;;-145.69;100.00;74882.19;5074790;28;20203;-77
2022/01/12 07:27:30;;;;;;;24.10;9.93;;;;;;;-145.69;100.00;74890.16;5074639;28;20206;-77
2022/01/12 07:30:00;;;;;;;20.30;9.80;;;;;;;-145.69;100.00;74894.13;5074273;28;20727;-76
2022/01/12 07:32:30;;;;;;;24.57;10.40;;;;;;;-145.69;100.00;74886.19;5074587;28;20213;-77
2022/01/12 07:35:03;;;;;;;20.57;10.10;;;;;;;-145.69;100.00;74876.22;5074557;28;20199;-78
2022/01/12 07:37:32;;;;;;;26.77;11.30;;;;;;;-145.69;100.00;74874.22;5074558;28;20252;-77
2022/01/12 07:39:58;;;;;;;22.90;10.20;;;;;;;-145.69;100.00;74866.25;5074623;28;20218;-77
2022/01/12 07:42:25;;;;;;;21.97;10.63;;;;;;;-145.69;100.00;74858.28;5074508;28;20226;-77
2022/01/12 07:44:58;;;;;;;23.67;10.77;;;;;;;-145.69;100.00;74858.28;5074475;28;20199;-77
2022/01/12 07:47:25;;;;;;;21.43;10.07;;;;;;;-145.69;100.00;74860.28;5074466;28;20627;-77
2022/01/12 07:49:51;;;;;;;21.93;9.93;;;;;;;-145.69;100.00;74850.31;5074287;28;20218;-77
2022/01/12 07:55:00;;;;;;;19.87;9.60;;;;;;;-145.69;100.00;74822.44;5072222;28;20198;-77
2022/01/12 07:57:27;;;;;;;23.13;10.00;;;;;;;-145.69;100.00;74814.47;5074019;28;20556;-78
2022/01/12 07:59:56;;;;;;;22.53;10.47;;;;;;;-145.69;100.00;74814.47;5074223;28;20206;-77
2022/01/12 08:02:23;;;;;;;21.17;9.87;;;;;;;-145.69;100.00;74814.47;5073913;28;20199;-77
2022/01/12 08:04:52;;;;;;;20.63;9.53;;;;;;;-145.69;100.00;74838.38;5073846;28;20206;-77
2022/01/12 08:07:19;;;;;;;19.83;10.00;;;;;;;-145.69;100.00;74842.34;5074070;28;20210;-77
2022/01/12 08:09:46;;;;;;;20.20;9.57;;;;;;;-145.69;100.00;74848.34;5073867;28;20223;-77
2022/01/12 08:12:15;;;;;;;20.20;9.30;;;;;;;-145.69;100.00;74862.28;5073960;28;20241;-77
2022/01/12 08:14:42;;;;;;;21.63;10.80;;;;;;;-145.69;100.00;74862.28;5073723;28;20210;-78
2022/01/12 08:17:08;;;;;;;20.53;10.10;;;;;;;-145.69;100.00;74874.22;5073621;28;20604;-77
2022/01/12 08:19:38;;;;;;;18.97;9.73;;;;;;;-145.69;100.00;74890.16;5073631;28;20256;-77
2022/01/12 08:22:05;;;;;;;24.07;11.10;;;;;;;-145.69;100.00;74896.13;5073371;28;20253;-77
2022/01/12 08:24:34;;;;;;;22.27;10.57;;;;;;;-145.69;100.00;74910.06;5073511;28;20657;-76
2022/01/12 08:27:03;;;;;;;23.10;10.67;;;;;;;-145.69;100.00;74906.09;5073494;28;20201;-77
2022/01/12 08:29:30;;;;;;;20.20;10.17;;;;;;;-145.69;100.00;74910.06;5073508;28;20669;-77
2022/01/12 08:31:59;;;;;;;23.10;9.90;;;;;;;-145.69;100.00;74906.09;5059111;28;20203;-77
2022/01/12 08:34:26;;;;;;;21.43;10.10;;;;;;;-145.69;100.00;74912.06;5065505;28;20198;-77
2022/01/12 08:36:52;;;;;;;21.83;10.47;;;;;;;-145.69;100.00;74912.06;5073412;28;20289;-77
2022/01/12 08:39:21;;;;;;;23.07;11.13;;;;;;;-145.69;100.00;74906.09;5073430;28;20203;-77
2022/01/12 08:41:49;;;;;;;26.23;10.93;;;;;;;-145.69;100.00;74882.19;5073156;28;20234;-77
2022/01/12 08:44:17;;;;;;;21.83;10.30;;;;;;;-145.69;100.00;74866.25;5072946;28;20260;-77
2022/01/12 08:46:45;;;;;;;25.00;11.23;;;;;;;-145.69;100.00;74864.25;5073471;28;20203;-77
2022/01/12 08:49:11;;;;;;;22.27;10.47;;;;;;;-145.69;100.00;74874.22;5073530;28;20230;-77
2022/01/12 08:51:41;;;;;;;26.50;12.17;;;;;;;-145.69;100.00;74872.22;5073252;28;20245;-77
2022/01/12 08:54:07;;;;;;;32.50;17.08;;;;;;;-145.69;100.00;74866.25;5072012;28;20449;-77
2022/01/12 08:56:35;;;;;;;26.97;12.77;;;;;;;-145.69;100.00;74862.28;5073150;28;20199;-77
2022/01/12 08:59:08;;;;;;;27.00;12.60;;;;;;;-145.69;100.00;74890.16;5072993;28;20264;-78
2022/01/12 09:01:35;;;;;;;23.07;11.13;;;;;;;-145.69;100.00;74876.22;5073133;28;20541;-78
2022/01/12 09:04:01;;;;;;;26.80;12.97;;;;;;;-145.69;100.00;74866.25;5073181;28;20553;-77
2022/01/12 09:06:28;;;;;;;26.53;12.30;;;;;;;-145.69;100.00;74854.31;5073075;28;20209;-78
2022/01/12 09:08:54;;;;;;;29.63;13.27;;;;;;;-145.69;100.00;74832.41;5072447;28;20646;-77
2022/01/12 09:11:20;;;;;;;30.13;13.00;;;;;;;-145.69;100.00;74824.44;5072779;28;20222;-77
2022/01/12 09:13:47;;;;;;;30.30;13.53;;;;;;;-145.69;100.00;74810.50;5073065;28;20289;-78
2022/01/12 09:16:16;;;;;;;30.60;13.80;;;;;;;-145.69;100.00;74798.53;5072719;28;20654;-78
2022/01/12 09:18:43;;;;;;;27.87;13.03;;;;;;;-145.69;100.00;74780.63;5072905;28;20207;-78
2022/01/12 09:21:10;;;;;;;28.07;12.70;;;;;;;-145.69;100.00;74768.66;5072945;28;20228;-78
2022/01/12 09:23:38;;;;;;;22.93;11.40;;;;;;;-145.69;100.00;74752.75;5072906;28;20561;-78
2022/01/12 09:26:04;;;;;;;25.97;12.30;;;;;;;-145.69;100.00;74738.78;5072672;28;20234;-78
2022/01/12 09:28:32;;;;;;;27.77;12.77;;;;;;;-145.69;100.00;74714.91;5069502;28;20362;-77
2022/01/12 09:30:59;;;;;;;30.63;13.20;;;;;;;-145.69;100.00;74696.97;5072443;28;20593;-78
2022/01/12 09:33:27;;;;;;;30.67;14.03;;;;;;;-145.69;100.00;74687.03;5072815;28;20195;-79
2022/01/12 09:35:54;;;;;;;29.57;13.17;;;;;;;-145.69;100.00;74683.03;5072659;28;20211;-78
2022/01/12 09:38:23;;;;;;;24.53;12.17;;;;;;;-145.69;100.00;74659.13;5072718;28;20208;-77
2022/01/12 09:40:52;;;;;;;27.03;12.73;;;;;;;-145.69;100.00;74623.28;5072537;28;20201;-79
2022/01/12 09:43:19;;;;;;;24.70;12.57;;;;;;;-145.69;100.00;74605.38;5072417;28;20311;-80
2022/01/12 09:45:49;;;;;;;32.97;14.30;;;;;;;-145.69;100.00;74587.44;5074457;28;20202;-78
2022/01/12 09:48:16;;;;;;;29.47;12.27;;;;;;;-145.69;100.00;74561.56;5076454;28;20285;-79
2022/01/12 09:50:44;;;;;;;27.13;13.20;;;;;;;-145.69;100.00;74559.56;5076407;28;20696;-80
2022/01/12 09:53:10;;;;;;;22.07;10.70;;;;;;;-145.69;100.00;74565.53;5076228;28;20594;-80
2022/01/12 09:55:37;;;;;;;24.37;11.23;;;;;;;-145.69;100.00;74591.44;5076507;28;20256;-79
2022/01/12 09:58:04;;;;;;;25.60;11.07;;;;;;;-145.69;100.00;74583.47;5075245;28;20207;-81
2022/01/12 10:00:33;;;;;;;22.67;10.17;;;;;;;-145.69;100.00;74591.44;5056364;28;20195;-79
2022/01/12 10:03:09;;;;;;;21.37;10.10;;;;;;;-145.69;100.00;74613.34;5059087;28;20199;-78
2022/01/12 10:05:35;;;;;;;21.60;10.83;;;;;;;-145.69;100.00;74643.19;5056133;28;20610;-80
2022/01/12 10:08:15;;;;;;;23.53;10.67;;;;;;;-145.69;100.00;74643.19;5056329;28;20204;-80
2022/01/12 10:10:43;;;;;;;26.73;10.53;;;;;;;-145.69;100.00;74631.25;5056368;28;20219;-78
2022/01/12 10:13:23;;;;;;;23.30;11.37;;;;;;;-145.69;100.00;74619.31;5056006;28;20598;-78
2022/01/12 10:15:52;;;;;;;19.97;10.27;;;;;;;-145.69;100.00;74623.28;5056020;28;20210;-78
2022/01/12 10:18:19;;;;;;;22.17;10.60;;;;;;;-145.69;100.00;74623.28;5055909;28;20210;-78
2022/01/12 10:20:47;;;;;;;20.37;10.13;;;;;;;-145.69;100.00;74611.34;5055917;28;20296;-78
2022/01/12 10:23:15;;;;;;;23.63;10.53;;;;;;;-145.69;100.00;74625.28;5061476;28;20209;-80
2022/01/12 10:25:46;;;;;;;21.73;11.37;;;;;;;-145.69;100.00;74613.34;5075878;28;20286;-78
2022/01/12 10:28:15;;;;;;;23.07;11.60;;;;;;;-145.69;100.00;74605.38;5075657;28;20199;-79
2022/01/12 10:30:52;;;;;;;20.93;10.67;;;;;;;-145.69;100.00;74631.25;5075517;28;20700;-78
2022/01/12 10:33:18;;;;;;;23.83;11.00;;;;;;;-145.69;100.00;74639.22;5062608;28;20203;-78
2022/01/12 10:35:45;;;;;;;24.13;11.17;;;;;;;-145.69;100.00;74623.28;5055640;28;20208;-78
2022/01/12 10:38:14;;;;;;;23.07;10.90;;;;;;;-145.69;100.00;74647.19;5055439;28;20712;-78
2022/01/12 10:40:47;;;;;;;23.20;10.93;;;;;;;-145.69;100.00;74639.22;5055507;28;20281;-77
2022/01/12 10:43:30;;;;;;;23.80;12.13;;;;;;;-145.69;100.00;74639.22;5064461;28;20227;-78
2022/01/12 10:45:57;;;;;;;25.03;11.37;;;;;;;-145.69;100.00;74625.28;5075522;28;20210;-80
2022/01/12 10:48:25;;;;;;;24.40;11.27;;;;;;;-145.69;100.00;74615.31;5074731;28;20203;-78
2022/01/12 10:50:55;;;;;;;25.53;12.17;;;;;;;-145.69;100.00;74607.34;5075089;28;20623;-78
2022/01/12 10:53:33;;;;;;;27.60;12.37;;;;;;;-145.69;100.00;74589.44;5075274;28;20204;-78
2022/01/12 10:56:07;;;;;;;22.43;10.23;;;;;;;-145.69;100.00;74575.50;5074989;28;20206;-79
2022/01/12 10:58:38;;;;;;;21.27;11.00;;;;;;;-145.69;100.00;74557.56;5073982;28;20207;-78
2022/01/12 11:01:05;;;;;;;26.60;11.20;;;;;;;-145.69;100.00;74555.59;5075121;28;20202;-78
2022/01/12 11:03:34;;;;;;;22.50;11.13;;;;;;;-145.69;100.00;74549.59;5075090;28;20203;-80
2022/01/12 11:06:01;;;;;;;22.97;10.57;;;;;;;-145.69;100.00;74537.66;5074922;28;20234;-78
2022/01/12 11:08:31;;;;;;;24.13;10.67;;;;;;;-145.69;100.00;74541.63;5075176;28;20221;-79
2022/01/12 11:11:01;;;;;;;18.97;9.47;;;;;;;-145.69;100.00;74529.69;5075193;28;20226;-79
2022/01/12 11:13:30;;;;;;;21.47;10.30;;;;;;;-145.69;99.20;74527.69;5075098;28;20207;-79
2022/01/12 11:15:59;;;;;;;18.10;9.43;;;;;;;-145.69;99.67;74517.75;5074776;28;20646;-78
2022/01/12 11:18:28;;;;;;;19.77;9.67;;;;;;;-145.69;97.15;74511.78;5074665;28;20200;-79
2022/01/12 11:21:05;;;;;;;21.40;10.30;;;;;;;-145.69;99.34;74495.84;5074367;28;20217;-80
2022/01/12 11:23:36;;;;;;;22.10;10.43;;;;;;;-145.69;97.56;74503.81;5070078;28;20585;-79
2022/01/12 11:26:16;;;;;;;23.63;10.97;;;;;;;-145.69;98.78;74483.88;5054680;28;20199;-78
2022/01/12 11:28:44;;;;;;;21.97;10.07;;;;;;;-145.69;98.03;74485.88;5054509;28;20654;-78
2022/01/12 11:31:13;;;;;;;22.13;10.87;;;;;;;-145.69;100.00;74471.94;5054456;28;20229;-78
2022/01/12 11:33:42;;;;;;;22.30;10.47;;;;;;;-145.69;95.99;74487.88;5054507;28;20214;-78
2022/01/12 11:36:19;;;;;;;18.20;9.60;;;;;;;-145.69;96.72;74493.84;5054596;28;20207;-78
2022/01/12 11:38:48;;;;;;;24.30;11.23;;;;;;;-145.69;97.83;74481.91;5054422;28;20207;-78
2022/01/12 11:41:18;;;;;;;22.93;10.90;;;;;;;-145.69;98.43;74467.97;5054370;28;20257;-78
2022/01/12 11:43:50;;;;;;;21.73;10.50;;;;;;;-145.69;97.59;74471.94;5054071;28;20247;-78
2022/01/12 11:46:22;;;;;;;21.50;10.00;;;;;;;-145.69;97.26;74487.88;5054040;28;20207;-78
2022/01/12 11:48:54;;;;;;;22.27;10.97;;;;;;;-145.69;96.82;74467.97;5053894;28;20608;-78
2022/01/12 11:51:23;;;;;;;19.63;10.43;;;;;;;-145.69;96.29;74452.03;5054162;28;20223;-78
2022/01/12 11:53:52;;;;;;;18.63;10.07;;;;;;;-145.69;95.77;74430.13;5057131;28;20294;-79
2022/01/12 11:56:20;;;;;;;20.07;9.80;;;;;;;-145.69;95.71;74432.13;5054083;28;20219;-78
2022/01/12 11:58:57;;;;;;;22.23;10.70;;;;;;;-145.69;95.43;74432.13;5054649;28;20203;-78
2022/01/12 12:01:24;;;;;;;21.40;10.93;;;;;;;-145.69;95.46;74430.13;5053881;28;20206;-78
2022/01/12 12:03:58;;;;;;;17.13;9.27;;;;;;;-145.69;94.19;74422.16;5053931;28;20294;-79
2022/01/12 12:06:27;;;;;;;20.50;9.50;;;;;;;-145.69;94.54;74432.13;5053749;28;20203;-79
2022/01/12 12:09:00;;;;;;;23.43;10.60;;;;;;;-145.69;95.01;74454.03;5053572;28;20582;-78
2022/01/12 12:11:28;;;;;;;21.43;10.50;;;;;;;-145.69;95.46;74440.09;5053941;28;20227;-78
2022/01/12 12:14:01;;;;;;;21.73;10.23;;;;;;;-145.69;97.00;74418.19;5053766;28;20207;-78
2022/01/12 12:16:29;;;;;;;25.20;10.00;;;;;;;-145.69;95.87;74396.28;5053843;28;20214;-79